sensor_id;sensor_type;location;lat;lon;timestamp;pressure;altitude;pressure_sealevel;temperature;humidity
70943;BME280;59154;51.970;5.650;2023-03-21T00:00:04;101600;;;12.67779;90.1
70943;BME280;59154;51.970;5.650;2023-03-21T00:05:02;101600;;;12.75916;89.6
70943;BME280;59154;51.970;5.650;2023-03-21T00:10:04;101600;;;12.82527;89.4
70943;BME280;59154;51.970;5.650;2023-03-21T00:15:04;101600;;;12.6371;90.3
70943;BME280;59154;51.970;5.650;2023-03-21T00:20:06;101600;;;12.54556;91.3
70943;BME280;59154;51.970;5.650;2023-03-21T00:25:03;101600;;;12.46927;91.6
70943;BME280;59154;51.970;5.650;2023-03-21T00:30:04;101600;;;12.47945;91.6
70943;BME280;59154;51.970;5.650;2023-03-21T00:35:02;101600;;;12.50996;91.4
70943;BME280;59154;51.970;5.650;2023-03-21T00:40:04;101600;;;12.39299;92.2
70943;BME280;59154;51.970;5.650;2023-03-21T00:45:03;101600;;;12.2455;92.6
70943;BME280;59154;51.970;5.650;2023-03-21T00:50:04;101600;;;12.1743;92.9
70943;BME280;59154;51.970;5.650;2023-03-21T00:55:04;101500;;;12.1743;92.8
70943;BME280;59154;51.970;5.650;2023-03-21T01:00:04;101500;;;12.12853;92.8
70943;BME280;59154;51.970;5.650;2023-03-21T01:05:03;101500;;;12.22516;91.9
70943;BME280;59154;51.970;5.650;2023-03-21T01:10:03;101500;;;12.26585;91.8
70943;BME280;59154;51.970;5.650;2023-03-21T01:15:02;101500;;;12.30653;91.3
70943;BME280;59154;51.970;5.650;2023-03-21T01:20:04;101500;;;12.26585;91.0
70943;BME280;59154;51.970;5.650;2023-03-21T01:25:03;101500;;;12.30653;90.7
70943;BME280;59154;51.970;5.650;2023-03-21T01:30:04;101500;;;12.32179;90.3
70943;BME280;59154;51.970;5.650;2023-03-21T01:35:02;101500;;;12.31162;90.2
70943;BME280;59154;51.970;5.650;2023-03-21T01:40:05;101500;;;12.32687;90.2
70943;BME280;59154;51.970;5.650;2023-03-21T01:45:05;101500;;;12.27093;90.3
70943;BME280;59154;51.970;5.650;2023-03-21T01:50:03;101500;;;12.23025;90.5
70943;BME280;59154;51.970;5.650;2023-03-21T01:55:04;101500;;;12.16413;90.9
70943;BME280;59154;51.970;5.650;2023-03-21T02:00:05;101500;;;12.23533;90.7
70943;BME280;59154;51.970;5.650;2023-03-21T02:05:03;101500;;;12.3167;90.7
70943;BME280;59154;51.970;5.650;2023-03-21T02:10:04;101500;;;12.30145;91.1
70943;BME280;59154;51.970;5.650;2023-03-21T02:15:04;101500;;;12.2455;91.2
70943;BME280;59154;51.970;5.650;2023-03-21T02:20:23;101500;;;12.26076;91.1
70943;BME280;59154;51.970;5.650;2023-03-21T02:26:30;101500;;;12.22516;91.2
70943;BME280;59154;51.970;5.650;2023-03-21T02:30:20;101400;;;12.3879;90.2
70943;BME280;59154;51.970;5.650;2023-03-21T02:35:13;101400;;;12.35739;90.4
70943;BME280;59154;51.970;5.650;2023-03-21T02:40:08;101400;;;12.29636;90.8
70943;BME280;59154;51.970;5.650;2023-03-21T02:45:08;101400;;;12.30145;90.6
70943;BME280;59154;51.970;5.650;2023-03-21T02:50:08;101400;;;12.31162;90.7
70943;BME280;59154;51.970;5.650;2023-03-21T02:55:05;101400;;;12.33196;90.9
70943;BME280;59154;51.970;5.650;2023-03-21T03:00:04;101400;;;12.27602;90.9
70943;BME280;59154;51.970;5.650;2023-03-21T03:05:11;101400;;;12.34722;90.6
70943;BME280;59154;51.970;5.650;2023-03-21T03:10:18;101400;;;12.3879;90.3
70943;BME280;59154;51.970;5.650;2023-03-21T03:15:09;101400;;;12.37265;90.6
70943;BME280;59154;51.970;5.650;2023-03-21T03:20:14;101400;;;12.39299;90.6
70943;BME280;59154;51.970;5.650;2023-03-21T03:25:06;101400;;;12.32687;90.9
70943;BME280;59154;51.970;5.650;2023-03-21T03:30:04;101400;;;12.26076;91.2
70943;BME280;59154;51.970;5.650;2023-03-21T03:35:05;101400;;;12.34722;91.4
70943;BME280;59154;51.970;5.650;2023-03-21T03:40:07;101400;;;12.29636;91.1
70943;BME280;59154;51.970;5.650;2023-03-21T03:45:03;101400;;;12.36756;90.7
70943;BME280;59154;51.970;5.650;2023-03-21T03:50:08;101400;;;12.23533;90.8
70943;BME280;59154;51.970;5.650;2023-03-21T03:55:03;101400;;;12.21499;90.6
70943;BME280;59154;51.970;5.650;2023-03-21T04:00:05;101400;;;12.20482;90.6
70943;BME280;59154;51.970;5.650;2023-03-21T04:05:03;101400;;;12.21499;89.9
70943;BME280;59154;51.970;5.650;2023-03-21T04:10:04;101400;;;12.29636;89.6
70943;BME280;59154;51.970;5.650;2023-03-21T04:15:03;101400;;;12.30145;89.4
70943;BME280;59154;51.970;5.650;2023-03-21T04:20:05;101400;;;12.3167;89.3
70943;BME280;59154;51.970;5.650;2023-03-21T04:25:03;101400;;;12.40316;89.1
70943;BME280;59154;51.970;5.650;2023-03-21T04:30:03;101400;;;12.45402;88.8
70943;BME280;59154;51.970;5.650;2023-03-21T04:35:02;101400;;;12.42859;88.6
70943;BME280;59154;51.970;5.650;2023-03-21T04:40:04;101400;;;12.46927;88.2
70943;BME280;59154;51.970;5.650;2023-03-21T04:45:04;101400;;;12.33705;88.5
70943;BME280;59154;51.970;5.650;2023-03-21T04:50:03;101400;;;12.42859;87.8
70943;BME280;59154;51.970;5.650;2023-03-21T04:55:03;101400;;;12.43876;88.0
70943;BME280;59154;51.970;5.650;2023-03-21T05:00:05;101400;;;12.4591;87.9
70943;BME280;59154;51.970;5.650;2023-03-21T05:05:03;101400;;;12.62185;87.0
70943;BME280;59154;51.970;5.650;2023-03-21T05:10:04;101400;;;12.58116;87.0
70943;BME280;59154;51.970;5.650;2023-03-21T05:15:04;101400;;;12.4591;87.3
70943;BME280;59154;51.970;5.650;2023-03-21T05:20:04;101400;;;12.27602;88.0
70943;BME280;59154;51.970;5.650;2023-03-21T05:25:02;101400;;;12.26076;88.3
70943;BME280;59154;51.970;5.650;2023-03-21T05:30:06;101300;;;12.39299;87.7
70943;BME280;59154;51.970;5.650;2023-03-21T05:35:03;101300;;;12.39299;87.3
70943;BME280;59154;51.970;5.650;2023-03-21T05:40:04;101300;;;12.51505;87.2
70943;BME280;59154;51.970;5.650;2023-03-21T05:45:04;101300;;;12.3879;87.4
70943;BME280;59154;51.970;5.650;2023-03-21T05:50:03;101300;;;12.3523;87.4
70943;BME280;59154;51.970;5.650;2023-03-21T05:55:02;101300;;;12.47945;87.1
70943;BME280;59154;51.970;5.650;2023-03-21T06:00:05;101300;;;12.50487;86.9
70943;BME280;59154;51.970;5.650;2023-03-21T06:05:03;101300;;;12.19973;87.9
70943;BME280;59154;51.970;5.650;2023-03-21T06:10:04;101300;;;12.3167;87.5
70943;BME280;59154;51.970;5.650;2023-03-21T06:15:04;101300;;;12.49979;86.7
70943;BME280;59154;51.970;5.650;2023-03-21T06:20:04;101300;;;12.66253;86.0
70943;BME280;59154;51.970;5.650;2023-03-21T06:25:04;101300;;;12.56082;85.9
70943;BME280;59154;51.970;5.650;2023-03-21T06:30:04;101300;;;12.5659;86.0
70943;BME280;59154;51.970;5.650;2023-03-21T06:35:02;101300;;;12.55573;85.9
70943;BME280;59154;51.970;5.650;2023-03-21T06:40:03;101300;;;12.62185;85.4
70943;BME280;59154;51.970;5.650;2023-03-21T06:45:03;101300;;;12.55065;85.4
70943;BME280;59154;51.970;5.650;2023-03-21T06:50:03;101300;;;12.69305;85.1
70943;BME280;59154;51.970;5.650;2023-03-21T06:55:03;101300;;;12.64219;85.2
70943;BME280;59154;51.970;5.650;2023-03-21T07:00:05;101300;;;12.73373;85.1
70943;BME280;59154;51.970;5.650;2023-03-21T07:05:04;101300;;;13.04905;83.5
70943;BME280;59154;51.970;5.650;2023-03-21T07:10:04;101300;;;12.92699;84.1
70943;BME280;59154;51.970;5.650;2023-03-21T07:15:04;101300;;;12.89647;84.3
70943;BME280;59154;51.970;5.650;2023-03-21T07:20:03;101300;;;13.01853;83.7
70943;BME280;59154;51.970;5.650;2023-03-21T07:25:03;101300;;;13.34402;83.1
70943;BME280;59154;51.970;5.650;2023-03-21T07:30:03;101300;;;13.12025;83.6
70943;BME280;59154;51.970;5.650;2023-03-21T07:35:03;101300;;;13.15076;84.0
70943;BME280;59154;51.970;5.650;2023-03-21T07:40:04;101300;;;13.01345;84.1
70943;BME280;59154;51.970;5.650;2023-03-21T07:45:03;101300;;;13.04905;84.5
70943;BME280;59154;51.970;5.650;2023-03-21T07:50:03;101400;;;13.2067;84.3
70943;BME280;59154;51.970;5.650;2023-03-21T07:55:03;101400;;;13.14568;84.7
70943;BME280;59154;51.970;5.650;2023-03-21T08:00:03;101400;;;13.22196;84.9
70943;BME280;59154;51.970;5.650;2023-03-21T08:05:02;101300;;;13.26773;84.7
70943;BME280;59154;51.970;5.650;2023-03-21T08:10:03;101300;;;12.98293;85.5
70943;BME280;59154;51.970;5.650;2023-03-21T08:15:03;101300;;;13.00836;85.5
70943;BME280;59154;51.970;5.650;2023-03-21T08:20:04;101300;;;13.09482;85.5
70943;BME280;59154;51.970;5.650;2023-03-21T08:25:03;101300;;;13.07956;85.3
70943;BME280;59154;51.970;5.650;2023-03-21T08:30:04;101300;;;13.1355;85.0
70943;BME280;59154;51.970;5.650;2023-03-21T08:35:03;101300;;;13.1355;84.7
70943;BME280;59154;51.970;5.650;2023-03-21T08:40:05;101300;;;13.0643;84.9
70943;BME280;59154;51.970;5.650;2023-03-21T08:45:03;101300;;;13.19653;85.1
70943;BME280;59154;51.970;5.650;2023-03-21T08:50:05;101300;;;13.21688;85.1
70943;BME280;59154;51.970;5.650;2023-03-21T08:55:03;101300;;;13.31859;85.1
70943;BME280;59154;51.970;5.650;2023-03-21T09:00:05;101300;;;13.36436;84.6
70943;BME280;59154;51.970;5.650;2023-03-21T09:05:03;101300;;;13.42031;84.6
70943;BME280;59154;51.970;5.650;2023-03-21T09:10:05;101300;;;13.61865;84.1
70943;BME280;59154;51.970;5.650;2023-03-21T09:15:03;101300;;;13.64917;83.3
70943;BME280;59154;51.970;5.650;2023-03-21T09:20:04;101300;;;13.76105;83.2
70943;BME280;59154;51.970;5.650;2023-03-21T09:25:03;101300;;;13.89328;83.3
70943;BME280;59154;51.970;5.650;2023-03-21T09:30:03;101300;;;13.995;83.7
70943;BME280;59154;51.970;5.650;2023-03-21T09:35:03;101300;;;14.13232;83.4
70943;BME280;59154;51.970;5.650;2023-03-21T09:40:04;101300;;;14.07637;83.4
70943;BME280;59154;51.970;5.650;2023-03-21T09:45:08;101300;;;13.85768;83.6
70943;BME280;59154;51.970;5.650;2023-03-21T09:50:10;101300;;;14.12723;82.7
70943;BME280;59154;51.970;5.650;2023-03-21T09:55:03;101300;;;14.07637;82.9
70943;BME280;59154;51.970;5.650;2023-03-21T10:00:05;101300;;;14.28998;81.9
70943;BME280;59154;51.970;5.650;2023-03-21T10:05:11;101200;;;14.36118;80.7
70943;BME280;59154;51.970;5.650;2023-03-21T10:10:03;101200;;;14.46289;80.6
70943;BME280;59154;51.970;5.650;2023-03-21T10:15:04;101200;;;14.51884;80.2
70943;BME280;59154;51.970;5.650;2023-03-21T10:20:13;101200;;;14.73753;79.6
70943;BME280;59154;51.970;5.650;2023-03-21T10:25:02;101200;;;14.89519;78.4
70943;BME280;59154;51.970;5.650;2023-03-21T10:30:05;101200;;;14.97148;78.7
70943;BME280;59154;51.970;5.650;2023-03-21T10:35:03;101200;;;14.76804;79.4
70943;BME280;59154;51.970;5.650;2023-03-21T10:40:04;101200;;;14.9613;78.4
70943;BME280;59154;51.970;5.650;2023-03-21T10:45:13;101200;;;15.2156;76.7
70943;BME280;59154;51.970;5.650;2023-03-21T10:50:10;101200;;;15.16982;76.4
70943;BME280;59154;51.970;5.650;2023-03-21T10:55:07;101200;;;15.3936;76.1
70943;BME280;59154;51.970;5.650;2023-03-21T11:00:05;101200;;;15.57669;75.6
70943;BME280;59154;51.970;5.650;2023-03-21T11:05:04;101200;;;15.82082;74.3
70943;BME280;59154;51.970;5.650;2023-03-21T11:10:13;101200;;;15.86659;74.4
70943;BME280;59154;51.970;5.650;2023-03-21T11:15:25;101200;;;15.66824;74.2
70943;BME280;59154;51.970;5.650;2023-03-21T11:20:06;101200;;;15.67841;74.3
70943;BME280;59154;51.970;5.650;2023-03-21T11:25:08;101200;;;15.66824;75.1
70943;BME280;59154;51.970;5.650;2023-03-21T11:30:03;101200;;;15.77504;74.5
70943;BME280;59154;51.970;5.650;2023-03-21T11:35:04;101200;;;16.03442;74.1
70943;BME280;59154;51.970;5.650;2023-03-21T11:40:12;101200;;;16.1514;73.7
70943;BME280;59154;51.970;5.650;2023-03-21T11:45:10;101200;;;16.2226;72.2
70943;BME280;59154;51.970;5.650;2023-03-21T11:50:13;101200;;;16.26329;72.4
70943;BME280;59154;51.970;5.650;2023-03-21T11:55:17;101200;;;16.17174;72.5
70943;BME280;59154;51.970;5.650;2023-03-21T12:00:11;101200;;;16.36501;72.0
70943;BME280;59154;51.970;5.650;2023-03-21T12:05:05;101200;;;16.4057;71.3
70943;BME280;59154;51.970;5.650;2023-03-21T12:10:20;101200;;;16.49724;71.0
70943;BME280;59154;51.970;5.650;2023-03-21T12:15:10;101200;;;16.25821;70.9
70943;BME280;59154;51.970;5.650;2023-03-21T12:20:20;101200;;;16.41587;70.6
70943;BME280;59154;51.970;5.650;2023-03-21T12:25:06;101200;;;16.59388;70.0
70943;BME280;59154;51.970;5.650;2023-03-21T12:30:14;101100;;;16.54302;70.1
70943;BME280;59154;51.970;5.650;2023-03-21T12:35:16;101100;;;16.61931;69.6
70943;BME280;59154;51.970;5.650;2023-03-21T12:40:11;101100;;;16.838;69.5
70943;BME280;59154;51.970;5.650;2023-03-21T12:45:09;101100;;;16.86852;69.4
70943;BME280;59154;51.970;5.650;2023-03-21T12:50:08;101100;;;16.93972;67.4
70943;BME280;59154;51.970;5.650;2023-03-21T12:55:09;101100;;;16.81257;68.3
70943;BME280;59154;51.970;5.650;2023-03-21T13:00:08;101100;;;16.80749;68.0
70943;BME280;59154;51.970;5.650;2023-03-21T13:05:06;101100;;;16.72611;68.4
70943;BME280;59154;51.970;5.650;2023-03-21T13:10:12;101100;;;16.32432;67.8
70943;BME280;59154;51.970;5.650;2023-03-21T13:15:16;101100;;;16.48707;68.7
70943;BME280;59154;51.970;5.650;2023-03-21T13:20:09;101100;;;16.58879;68.2
70943;BME280;59154;51.970;5.650;2023-03-21T13:25:04;101100;;;16.42604;68.5
70943;BME280;59154;51.970;5.650;2023-03-21T13:30:05;101100;;;16.86343;67.8
70943;BME280;59154;51.970;5.650;2023-03-21T13:35:13;101100;;;17.31608;66.6
70943;BME280;59154;51.970;5.650;2023-03-21T13:40:06;101100;;;17.29065;66.4
70943;BME280;59154;51.970;5.650;2023-03-21T13:45:09;101100;;;17.47375;66.6
70943;BME280;59154;51.970;5.650;2023-03-21T13:50:50;101100;;;17.311;65.8
70943;BME280;59154;51.970;5.650;2023-03-21T13:55:03;101100;;;17.23979;65.3
70943;BME280;59154;51.970;5.650;2023-03-21T14:00:22;101100;;;17.20928;65.9
70943;BME280;59154;51.970;5.650;2023-03-21T14:05:06;101100;;;17.35168;63.6
70943;BME280;59154;51.970;5.650;2023-03-21T14:10:07;101000;;;17.36694;62.3
70943;BME280;59154;51.970;5.650;2023-03-21T14:15:05;101000;;;17.26014;61.5
70943;BME280;59154;51.970;5.650;2023-03-21T14:20:11;101000;;;17.19402;62.1
70943;BME280;59154;51.970;5.650;2023-03-21T14:25:09;101000;;;17.57547;62.1
70943;BME280;59154;51.970;5.650;2023-03-21T14:30:04;101000;;;17.68736;61.9
70943;BME280;59154;51.970;5.650;2023-03-21T14:35:03;101000;;;17.48392;62.0
70943;BME280;59154;51.970;5.650;2023-03-21T14:40:06;101000;;;17.47883;62.1
70943;BME280;59154;51.970;5.650;2023-03-21T14:45:14;101000;;;17.6009;62.5
70943;BME280;59154;51.970;5.650;2023-03-21T14:50:05;101000;;;17.68227;62.2
70943;BME280;59154;51.970;5.650;2023-03-21T14:55:13;101000;;;17.36186;61.9
70943;BME280;59154;51.970;5.650;2023-03-21T15:00:07;101000;;;17.52461;62.0
70943;BME280;59154;51.970;5.650;2023-03-21T15:05:08;101000;;;17.50935;62.7
70943;BME280;59154;51.970;5.650;2023-03-21T15:10:07;101000;;;17.14825;63.1
70943;BME280;59154;51.970;5.650;2023-03-21T15:15:03;101000;;;17.03127;64.3
70943;BME280;59154;51.970;5.650;2023-03-21T15:20:04;101000;;;16.90412;63.9
70943;BME280;59154;51.970;5.650;2023-03-21T15:25:04;101000;;;16.91429;64.6
70943;BME280;59154;51.970;5.650;2023-03-21T15:30:04;101000;;;16.87869;64.7
70943;BME280;59154;51.970;5.650;2023-03-21T15:35:05;101000;;;16.92955;65.3
70943;BME280;59154;51.970;5.650;2023-03-21T15:40:08;101000;;;16.89395;64.9
70943;BME280;59154;51.970;5.650;2023-03-21T15:45:13;101000;;;17.00075;65.1
70943;BME280;59154;51.970;5.650;2023-03-21T15:50:07;101000;;;17.02618;65.6
70943;BME280;59154;51.970;5.650;2023-03-21T15:55:16;101000;;;17.02618;66.1
70943;BME280;59154;51.970;5.650;2023-03-21T16:00:16;101000;;;16.89395;66.4
70943;BME280;59154;51.970;5.650;2023-03-21T16:05:21;101000;;;17.04653;66.2
70943;BME280;59154;51.970;5.650;2023-03-21T16:10:03;101000;;;17.05161;66.4
70943;BME280;59154;51.970;5.650;2023-03-21T16:15:03;101000;;;16.94481;66.8
70943;BME280;59154;51.970;5.650;2023-03-21T16:20:11;101000;;;16.65999;67.5
70943;BME280;59154;51.970;5.650;2023-03-21T16:25:03;101000;;;16.49216;68.3
70943;BME280;59154;51.970;5.650;2023-03-21T16:30:03;101000;;;16.31415;69.0
70943;BME280;59154;51.970;5.650;2023-03-21T16:35:02;101000;;;16.33958;69.2
70943;BME280;59154;51.970;5.650;2023-03-21T16:40:15;101000;;;16.21752;69.7
70943;BME280;59154;51.970;5.650;2023-03-21T16:45:03;101000;;;15.98357;70.5
70943;BME280;59154;51.970;5.650;2023-03-21T16:50:17;101000;;;15.7547;72.5
70943;BME280;59154;51.970;5.650;2023-03-21T16:55:02;101000;;;15.80556;72.5
70943;BME280;59154;51.970;5.650;2023-03-21T17:00:04;101000;;;15.87676;72.9
70943;BME280;59154;51.970;5.650;2023-03-21T17:05:02;101000;;;15.55126;73.9
70943;BME280;59154;51.970;5.650;2023-03-21T17:10:03;101000;;;15.62755;74.6
70943;BME280;59154;51.970;5.650;2023-03-21T17:15:03;101000;;;15.65298;75.0
70943;BME280;59154;51.970;5.650;2023-03-21T17:20:13;101000;;;15.65298;75.1
70943;BME280;59154;51.970;5.650;2023-03-21T17:25:03;101000;;;15.57161;76.2
70943;BME280;59154;51.970;5.650;2023-03-21T17:30:18;101000;;;15.58178;76.3
70943;BME280;59154;51.970;5.650;2023-03-21T17:35:04;101000;;;15.61738;76.3
70943;BME280;59154;51.970;5.650;2023-03-21T17:40:04;101000;;;15.55635;76.4
70943;BME280;59154;51.970;5.650;2023-03-21T17:45:03;101000;;;15.34783;76.4
70943;BME280;59154;51.970;5.650;2023-03-21T17:50:03;101000;;;15.18508;76.9
70943;BME280;59154;51.970;5.650;2023-03-21T17:55:03;101000;;;15.08845;77.2
70943;BME280;59154;51.970;5.650;2023-03-21T18:00:04;101000;;;14.98165;77.4
70943;BME280;59154;51.970;5.650;2023-03-21T18:05:02;101000;;;14.52392;78.9
70943;BME280;59154;51.970;5.650;2023-03-21T18:10:04;101000;;;14.52392;79.0
70943;BME280;59154;51.970;5.650;2023-03-21T18:15:02;101000;;;14.351;79.5
70943;BME280;59154;51.970;5.650;2023-03-21T18:20:05;101000;;;14.36626;79.8
70943;BME280;59154;51.970;5.650;2023-03-21T18:25:03;101000;;;14.47306;79.9
70943;BME280;59154;51.970;5.650;2023-03-21T18:30:03;101000;;;14.45781;80.1
70943;BME280;59154;51.970;5.650;2023-03-21T18:35:02;101000;;;14.54427;80.0
70943;BME280;59154;51.970;5.650;2023-03-21T18:40:04;101000;;;14.50358;80.5
70943;BME280;59154;51.970;5.650;2023-03-21T18:45:02;101000;;;14.50867;80.8
70943;BME280;59154;51.970;5.650;2023-03-21T18:50:03;101000;;;14.44255;81.3
70943;BME280;59154;51.970;5.650;2023-03-21T18:55:03;101000;;;14.53918;81.0
70943;BME280;59154;51.970;5.650;2023-03-21T19:00:06;101000;;;14.43746;81.5
70943;BME280;59154;51.970;5.650;2023-03-21T19:05:03;101000;;;14.29506;81.9
70943;BME280;59154;51.970;5.650;2023-03-21T19:10:03;101000;;;14.27472;82.0
70943;BME280;59154;51.970;5.650;2023-03-21T19:15:04;101000;;;14.1374;82.5
70943;BME280;59154;51.970;5.650;2023-03-21T19:20:04;101000;;;14.19843;82.5
70943;BME280;59154;51.970;5.650;2023-03-21T19:25:03;101000;;;14.3154;82.3
70943;BME280;59154;51.970;5.650;2023-03-21T19:30:04;101000;;;14.38152;82.4
70943;BME280;59154;51.970;5.650;2023-03-21T19:35:03;101000;;;14.46289;82.2
70943;BME280;59154;51.970;5.650;2023-03-21T19:40:06;101000;;;14.36626;82.3
70943;BME280;59154;51.970;5.650;2023-03-21T19:45:03;101000;;;14.38152;82.1
70943;BME280;59154;51.970;5.650;2023-03-21T19:50:03;101000;;;14.26963;82.3
70943;BME280;59154;51.970;5.650;2023-03-21T19:55:03;101000;;;14.16792;82.6
70943;BME280;59154;51.970;5.650;2023-03-21T20:00:04;101000;;;14.07129;82.8
70943;BME280;59154;51.970;5.650;2023-03-21T20:05:03;101000;;;13.85768;83.5
70943;BME280;59154;51.970;5.650;2023-03-21T20:10:03;101000;;;13.83225;83.6
70943;BME280;59154;51.970;5.650;2023-03-21T20:15:03;101000;;;13.82208;83.5
70943;BME280;59154;51.970;5.650;2023-03-21T20:20:04;101000;;;13.78648;83.6
70943;BME280;59154;51.970;5.650;2023-03-21T20:25:02;101000;;;13.90345;83.3
70943;BME280;59154;51.970;5.650;2023-03-21T20:30:04;101000;;;13.9238;83.2
70943;BME280;59154;51.970;5.650;2023-03-21T20:35:03;101000;;;13.98483;83.0
70943;BME280;59154;51.970;5.650;2023-03-21T20:40:04;101000;;;14.12214;82.5
70943;BME280;59154;51.970;5.650;2023-03-21T20:45:03;101000;;;14.25946;81.7
70943;BME280;59154;51.970;5.650;2023-03-21T20:50:03;101000;;;14.15774;82.1
70943;BME280;59154;51.970;5.650;2023-03-21T20:55:03;101000;;;14.21877;82.0
70943;BME280;59154;51.970;5.650;2023-03-21T21:00:04;101000;;;14.16283;82.2
70943;BME280;59154;51.970;5.650;2023-03-21T21:05:03;101000;;;14.0662;82.5
70943;BME280;59154;51.970;5.650;2023-03-21T21:10:03;101000;;;13.97466;82.8
70943;BME280;59154;51.970;5.650;2023-03-21T21:15:03;101000;;;13.80682;83.6
70943;BME280;59154;51.970;5.650;2023-03-21T21:20:06;101000;;;13.75597;83.7
70943;BME280;59154;51.970;5.650;2023-03-21T21:25:03;101000;;;13.56271;84.7
70943;BME280;59154;51.970;5.650;2023-03-21T21:30:03;100900;;;13.50676;85.0
70943;BME280;59154;51.970;5.650;2023-03-21T21:35:02;100900;;;13.41013;85.4
70943;BME280;59154;51.970;5.650;2023-03-21T21:40:04;100900;;;13.33385;85.6
70943;BME280;59154;51.970;5.650;2023-03-21T21:45:02;100900;;;13.28808;86.0
70943;BME280;59154;51.970;5.650;2023-03-21T21:50:04;100900;;;13.25248;85.9
70943;BME280;59154;51.970;5.650;2023-03-21T21:55:02;100900;;;13.28808;85.8
70943;BME280;59154;51.970;5.650;2023-03-21T22:00:04;100900;;;13.20162;86.0
70943;BME280;59154;51.970;5.650;2023-03-21T22:05:03;100900;;;13.1355;86.2
70943;BME280;59154;51.970;5.650;2023-03-21T22:10:04;100900;;;13.02362;86.5
70943;BME280;59154;51.970;5.650;2023-03-21T22:15:03;100900;;;13.01345;86.6
70943;BME280;59154;51.970;5.650;2023-03-21T22:20:04;100900;;;12.97785;86.5
70943;BME280;59154;51.970;5.650;2023-03-21T22:25:03;100900;;;12.93716;85.9
70943;BME280;59154;51.970;5.650;2023-03-21T22:30:04;100900;;;12.73373;85.3
70943;BME280;59154;51.970;5.650;2023-03-21T22:35:03;100900;;;12.75407;85.0
70943;BME280;59154;51.970;5.650;2023-03-21T22:40:05;100900;;;12.77442;85.0
70943;BME280;59154;51.970;5.650;2023-03-21T22:45:04;100900;;;12.59133;84.7
70943;BME280;59154;51.970;5.650;2023-03-21T22:50:04;100900;;;12.52013;83.8
70943;BME280;59154;51.970;5.650;2023-03-21T22:55:02;100900;;;12.52522;83.6
70943;BME280;59154;51.970;5.650;2023-03-21T23:00:05;100900;;;12.58116;83.5
70943;BME280;59154;51.970;5.650;2023-03-21T23:05:02;100900;;;12.55573;83.9
70943;BME280;59154;51.970;5.650;2023-03-21T23:10:04;100900;;;12.35739;84.7
70943;BME280;59154;51.970;5.650;2023-03-21T23:15:03;100900;;;12.3879;84.6
70943;BME280;59154;51.970;5.650;2023-03-21T23:20:04;100900;;;12.43876;84.2
70943;BME280;59154;51.970;5.650;2023-03-21T23:25:03;100900;;;12.32179;84.5
70943;BME280;59154;51.970;5.650;2023-03-21T23:30:04;100900;;;12.2455;84.7
70943;BME280;59154;51.970;5.650;2023-03-21T23:35:03;100900;;;12.26076;84.7
70943;BME280;59154;51.970;5.650;2023-03-21T23:40:04;100900;;;12.1031;84.9
70943;BME280;59154;51.970;5.650;2023-03-21T23:45:02;100900;;;12.1743;84.2
70943;BME280;59154;51.970;5.650;2023-03-21T23:50:03;100900;;;12.04208;84.3
70943;BME280;59154;51.970;5.650;2023-03-21T23:55:04;100900;;;12.09293;83.9
